NZiba Airport


Codes: FCMB/
Name: NZiba Airport
City: NZiba
Country: Congo [Republic]
Elevation: 2149 ft.

Photos at NZiba Airport


   Photos courtesy of SpottingLog. You can add your own sightings and photos by signing up for a free trial today.



No photos found.

Weather at NZiba Airport


Time (UTC)DescriptionTempratureWindCloud coverageVisibilityPressureHumidity
25-Jun-2024 21:00Light Rain22°C2 mph, SW83%10000m1012hPa84%
26-Jun-2024 00:00Broken Clouds21°C2 mph, W81%10000m1012hPa88%
26-Jun-2024 03:00Overcast Clouds20°C2 mph, NW86%10000m1011hPa94%
26-Jun-2024 06:00Light Rain19°C2 mph, SW79%3216m1013hPa98%
26-Jun-2024 09:00Overcast Clouds23°C4 mph, W89%10000m1014hPa81%
26-Jun-2024 12:00Light Rain24°C4 mph, SW94%10000m1012hPa74%
26-Jun-2024 15:00Light Rain26°C4 mph, W77%10000m1009hPa67%
26-Jun-2024 18:00Broken Clouds21°C2 mph, NW65%10000m1012hPa92%
26-Jun-2024 21:00Broken Clouds20°C2 mph, NW65%10000m1013hPa98%
27-Jun-2024 00:00Light Rain20°C2 mph, W82%10000m1012hPa95%
27-Jun-2024 03:00Broken Clouds19°C2 mph, W84%10000m1012hPa98%
27-Jun-2024 06:00Broken Clouds19°C2 mph, SW76%10000m1014hPa97%
27-Jun-2024 09:00Broken Clouds24°C4 mph, SW62%10000m1014hPa71%
27-Jun-2024 12:00Broken Clouds30°C4 mph, SW56%10000m1011hPa50%
27-Jun-2024 15:00Overcast Clouds29°C4 mph, SW91%10000m1009hPa50%
27-Jun-2024 18:00Overcast Clouds25°C2 mph, W94%10000m1011hPa66%
27-Jun-2024 21:00Broken Clouds22°C2 mph, SW64%10000m1013hPa77%
28-Jun-2024 00:00Broken Clouds20°C4 mph, NW62%10000m1013hPa89%
28-Jun-2024 03:00Broken Clouds18°C2 mph, W79%10000m1012hPa96%
28-Jun-2024 06:00Broken Clouds18°C2 mph, SW64%10000m1014hPa93%
28-Jun-2024 09:00Overcast Clouds22°C2 mph, SW91%10000m1015hPa74%
28-Jun-2024 12:00Overcast Clouds29°C4 mph, SW94%10000m1012hPa47%
28-Jun-2024 15:00Overcast Clouds29°C4 mph, SW100%10000m1010hPa45%
28-Jun-2024 18:00Overcast Clouds22°C2 mph, SW96%10000m1012hPa68%
28-Jun-2024 21:00Overcast Clouds20°C4 mph, SW98%10000m1014hPa78%
29-Jun-2024 00:00Broken Clouds18°C4 mph, NW78%10000m1014hPa91%
29-Jun-2024 03:00Overcast Clouds17°C2 mph, W100%10000m1014hPa94%
29-Jun-2024 06:00Broken Clouds17°C2 mph, W77%10000m1015hPa91%
29-Jun-2024 09:00Broken Clouds25°C4 mph, SW64%10000m1015hPa50%
29-Jun-2024 12:00Broken Clouds29°C4 mph, SW66%10000m1012hPa38%
29-Jun-2024 15:00Clear Sky29°C4 mph, SW9%10000m1010hPa39%
29-Jun-2024 18:00Broken Clouds22°C2 mph, SW51%10000m1012hPa61%
29-Jun-2024 21:00Overcast Clouds20°C4 mph, SW100%10000m1014hPa70%
30-Jun-2024 00:00Overcast Clouds17°C2 mph, W98%10000m1015hPa82%
30-Jun-2024 03:00Scattered Clouds16°C2 mph, NW40%10000m1014hPa86%
30-Jun-2024 06:00Scattered Clouds17°C2 mph, W39%10000m1015hPa84%
30-Jun-2024 09:00Scattered Clouds25°C4 mph, SW35%10000m1016hPa47%
30-Jun-2024 12:00Broken Clouds29°C4 mph, SW66%10000m1013hPa36%
30-Jun-2024 15:00Scattered Clouds29°C4 mph, SW29%10000m1010hPa36%
30-Jun-2024 18:00Scattered Clouds22°C2 mph, W48%10000m1012hPa59%